Lima, West Virginia
Current Conditions -  °F | °C
As of 12:53 PM on Sunday 21 Dec 2014 (Local Time) from KCKB Reporting Station
Clear Clear  
Wind Chill: 32°   Ceiling: Unl
Heat Index: 37°   Visibility: 10mi
Dew Point: 27°   Wind: 6mph
Humidity: 67%   Direction: NA
Pressure: 30.24"   Gusts: NA
Location:  39.5266°N, 80.6428°W
Report Text: KCKB 211753Z VRB05KT 10SM CLR 03/M03 A3024 RMK AO2 SLP245 T00281028 10039 21017 58022
Loading
Personal Weather Stations






























Interactive Weather Map New forecast layout! Learn more

10-Day Weather Forecast

Advertisements
Track Severe Weather on mobile